createdAt,value
2022-12-03T00:01:01.672Z,25.37
2022-12-03T00:03:29.563Z,26.93
2022-12-03T00:05:56.684Z,24.40
2022-12-03T00:08:23.629Z,25.00
2022-12-03T00:10:50.529Z,26.43
2022-12-03T00:13:17.434Z,25.13
2022-12-03T00:15:44.471Z,26.80
2022-12-03T00:18:11.475Z,27.27
2022-12-03T00:20:38.394Z,26.57
2022-12-03T00:23:05.552Z,27.03
2022-12-03T00:25:32.522Z,26.63
2022-12-03T00:27:59.502Z,25.73
2022-12-03T00:30:26.439Z,27.37
2022-12-03T00:32:53.353Z,26.23
2022-12-03T00:35:21.427Z,25.33
2022-12-03T00:37:48.439Z,24.80
2022-12-03T00:40:15.505Z,24.87
2022-12-03T00:42:42.461Z,24.70
2022-12-03T00:45:09.959Z,24.40
2022-12-03T00:47:36.886Z,24.13
2022-12-03T00:50:05.386Z,24.63
2022-12-03T00:52:32.351Z,24.80
2022-12-03T00:54:59.256Z,25.30
2022-12-03T00:57:26.192Z,24.63
2022-12-03T00:59:53.105Z,24.23
2022-12-03T01:02:20.091Z,23.93
2022-12-03T01:04:47.163Z,21.23
2022-12-03T01:07:14.509Z,23.43
2022-12-03T01:09:41.408Z,23.33
2022-12-03T01:12:08.309Z,23.37
2022-12-03T01:14:35.273Z,21.83
2022-12-03T01:17:02.185Z,22.20
2022-12-03T01:19:29.289Z,23.03
2022-12-03T01:21:56.301Z,21.57
2022-12-03T01:24:23.222Z,22.97
2022-12-03T01:26:50.221Z,22.27
2022-12-03T01:29:17.248Z,20.73
2022-12-03T01:32:02.928Z,22.67
2022-12-03T01:34:29.997Z,22.50
2022-12-03T01:36:57.202Z,21.70
2022-12-03T01:39:24.418Z,22.43
2022-12-03T01:41:53.183Z,23.73
2022-12-03T01:44:27.391Z,20.70
2022-12-03T01:46:56.754Z,21.03
2022-12-03T01:49:56.836Z,21.17
2022-12-03T01:52:29.151Z,21.20
2022-12-03T01:55:00.391Z,21.27
2022-12-03T01:57:41.029Z,21.67
2022-12-03T02:00:19.435Z,20.93
2022-12-03T02:02:50.288Z,19.77
2022-12-03T02:05:21.204Z,19.57
2022-12-03T02:07:48.853Z,21.67
2022-12-03T02:10:20.067Z,20.57
2022-12-03T02:13:03.020Z,20.00
2022-12-03T02:15:30.483Z,18.67
2022-12-03T02:17:57.828Z,19.60
2022-12-03T02:20:24.868Z,19.73
2022-12-03T02:23:03.977Z,19.87
2022-12-03T02:25:34.694Z,20.27
2022-12-03T02:28:03.670Z,20.17
2022-12-03T02:30:32.262Z,20.67
2022-12-03T02:32:59.768Z,19.90
2022-12-03T02:35:31.665Z,18.47
2022-12-03T02:38:19.917Z,18.57
2022-12-03T02:40:49.721Z,19.00
2022-12-03T02:43:20.456Z,16.57
2022-12-03T02:45:52.022Z,19.40
2022-12-03T02:48:34.728Z,18.67
2022-12-03T02:51:05.987Z,18.53
2022-12-03T02:53:45.081Z,18.77
2022-12-03T02:56:17.002Z,18.73
2022-12-03T02:58:47.071Z,18.40
2022-12-03T03:01:15.555Z,18.50
2022-12-03T03:03:43.668Z,19.00
2022-12-03T03:06:11.073Z,19.03
2022-12-03T03:08:39.264Z,18.13
2022-12-03T03:11:06.384Z,18.13
2022-12-03T03:13:35.416Z,17.67
2022-12-03T03:16:04.733Z,18.67
2022-12-03T03:18:33.684Z,17.77
2022-12-03T03:21:00.901Z,17.47
2022-12-03T03:23:27.959Z,17.37
2022-12-03T03:26:05.928Z,17.73
2022-12-03T03:28:38.319Z,16.33
2022-12-03T03:31:08.237Z,16.77
2022-12-03T03:33:36.492Z,16.67
2022-12-03T03:36:03.609Z,16.47
2022-12-03T03:38:31.898Z,16.97
2022-12-03T03:41:00.540Z,17.23
2022-12-03T03:43:28.729Z,16.53
2022-12-03T03:45:56.244Z,17.73
2022-12-03T03:48:23.586Z,16.40
2022-12-03T03:50:51.969Z,17.87
2022-12-03T03:53:20.761Z,15.80
2022-12-03T03:55:48.181Z,15.80
2022-12-03T03:58:15.175Z,16.47
2022-12-03T04:00:46.395Z,16.40
2022-12-03T04:03:13.460Z,16.53
2022-12-03T04:05:40.773Z,17.03
2022-12-03T04:08:07.789Z,18.33
2022-12-03T04:10:53.296Z,15.97
2022-12-03T04:13:20.238Z,17.53
2022-12-03T04:15:47.140Z,18.57
2022-12-03T04:18:32.661Z,17.30
2022-12-03T04:21:19.857Z,17.27
2022-12-03T04:23:46.801Z,16.60
2022-12-03T04:26:32.451Z,17.87
2022-12-03T04:28:59.482Z,17.37
2022-12-03T04:31:45.443Z,18.83
2022-12-03T04:34:30.890Z,15.87
2022-12-03T04:36:57.862Z,18.27
2022-12-03T04:39:24.934Z,17.90
2022-12-03T04:41:51.930Z,18.37
2022-12-03T04:44:36.350Z,17.07
2022-12-03T04:47:20.537Z,16.83
2022-12-03T04:49:50.482Z,16.77
2022-12-03T04:52:20.610Z,19.00
2022-12-03T04:54:47.847Z,18.37
2022-12-03T04:57:14.850Z,18.37
2022-12-03T04:59:41.771Z,16.27
2022-12-03T05:02:09.001Z,17.10
2022-12-03T05:04:36.038Z,17.60
2022-12-03T05:07:03.492Z,16.67
2022-12-03T05:09:30.443Z,17.30
2022-12-03T05:11:57.383Z,17.23
2022-12-03T05:14:24.307Z,16.07
2022-12-03T05:16:51.339Z,16.87
2022-12-03T05:19:18.412Z,17.03
2022-12-03T05:21:45.386Z,16.60
2022-12-03T05:24:12.279Z,17.90
2022-12-03T05:26:39.212Z,17.13
2022-12-03T05:29:06.165Z,16.83
2022-12-03T05:31:33.070Z,17.57
2022-12-03T05:34:00.084Z,16.70
2022-12-03T05:36:27.048Z,17.70
2022-12-03T05:38:53.995Z,18.20
2022-12-03T05:41:39.511Z,15.73
2022-12-03T05:44:06.489Z,18.40
2022-12-03T05:46:33.795Z,18.60
2022-12-03T05:49:01.020Z,17.37
2022-12-03T05:51:28.239Z,17.07
2022-12-03T05:53:55.165Z,18.37
2022-12-03T05:56:22.098Z,16.40
2022-12-03T05:58:48.997Z,17.70
2022-12-03T06:01:16.086Z,17.87
2022-12-03T06:03:43.118Z,16.73
2022-12-03T06:06:10.101Z,18.07
2022-12-03T06:08:36.994Z,18.13
2022-12-03T06:11:04.104Z,17.43
2022-12-03T06:13:31.006Z,17.73
2022-12-03T06:15:58.064Z,17.33
2022-12-03T06:18:25.046Z,16.90
2022-12-03T06:20:51.978Z,17.30
2022-12-03T06:23:18.999Z,16.33
2022-12-03T06:25:45.962Z,17.87
2022-12-03T06:28:12.941Z,16.67
2022-12-03T06:30:40.117Z,16.60
2022-12-03T06:33:07.043Z,16.93
2022-12-03T06:35:33.951Z,17.63
2022-12-03T06:38:00.946Z,18.10
2022-12-03T06:40:27.956Z,17.20
2022-12-03T06:42:54.910Z,18.73
2022-12-03T06:45:21.907Z,16.03
2022-12-03T06:47:48.873Z,16.83
2022-12-03T06:50:15.975Z,17.57
2022-12-03T06:52:42.882Z,16.43
2022-12-03T06:55:10.128Z,18.43
2022-12-03T06:57:37.103Z,17.17
2022-12-03T07:00:08.880Z,16.93
2022-12-03T07:02:36.527Z,17.37
2022-12-03T07:05:04.014Z,17.20
2022-12-03T07:07:31.060Z,15.77
2022-12-03T07:09:58.094Z,17.03
2022-12-03T07:12:25.034Z,16.13
2022-12-03T07:14:52.415Z,18.07
2022-12-03T07:17:19.690Z,17.30
2022-12-03T07:19:46.688Z,17.93
2022-12-03T07:22:13.679Z,17.60
2022-12-03T07:24:40.701Z,16.93
2022-12-03T07:27:07.799Z,16.00
2022-12-03T07:29:34.770Z,17.27
2022-12-03T07:32:01.679Z,16.77
2022-12-03T07:34:28.656Z,16.47
2022-12-03T07:36:55.619Z,18.27
2022-12-03T07:39:22.610Z,17.13
2022-12-03T07:41:49.811Z,18.07
2022-12-03T07:44:16.774Z,16.13
2022-12-03T07:46:43.886Z,16.80
2022-12-03T07:49:12.255Z,18.27
2022-12-03T07:51:39.350Z,17.13
2022-12-03T07:54:06.342Z,17.40
2022-12-03T07:56:33.359Z,18.70
2022-12-03T07:59:00.350Z,17.53
2022-12-03T08:01:27.386Z,18.30
2022-12-03T08:03:54.464Z,16.93
2022-12-03T08:06:21.386Z,17.87
2022-12-03T08:08:48.335Z,18.80
2022-12-03T08:11:15.794Z,16.93
2022-12-03T08:13:43.396Z,18.23
2022-12-03T08:16:22.100Z,18.37
2022-12-03T08:18:51.246Z,18.10
2022-12-03T08:21:20.994Z,17.60
2022-12-03T08:23:48.386Z,17.40
2022-12-03T08:26:25.626Z,16.40
2022-12-03T08:28:53.764Z,17.77
2022-12-03T08:31:32.891Z,17.57
2022-12-03T08:34:18.845Z,17.37
2022-12-03T08:36:47.651Z,17.63
2022-12-03T08:39:33.764Z,17.03
2022-12-03T08:42:44.179Z,17.80
2022-12-03T08:45:32.877Z,17.93
2022-12-03T08:48:05.819Z,17.33
2022-12-03T08:50:41.306Z,18.20
2022-12-03T08:53:14.221Z,18.77
2022-12-03T08:55:55.016Z,17.80
2022-12-03T08:58:40.139Z,18.50
2022-12-03T09:01:12.993Z,17.67
2022-12-03T09:03:51.116Z,18.27
2022-12-03T09:06:18.560Z,20.73
2022-12-03T09:08:45.501Z,19.30
2022-12-03T09:11:12.950Z,17.67
2022-12-03T09:13:39.966Z,18.07
2022-12-03T09:16:07.340Z,17.70
2022-12-03T09:18:34.374Z,17.53
2022-12-03T09:21:01.412Z,18.87
2022-12-03T09:23:28.334Z,18.40
2022-12-03T09:25:55.246Z,18.70
2022-12-03T09:28:22.171Z,17.60
2022-12-03T09:30:49.073Z,18.03
2022-12-03T09:33:16.089Z,19.27
2022-12-03T09:35:43.074Z,19.57
2022-12-03T09:38:10.014Z,19.20
2022-12-03T09:40:36.944Z,20.03
2022-12-03T09:43:04.549Z,17.87
2022-12-03T09:45:31.728Z,20.13
2022-12-03T09:48:01.162Z,18.37
2022-12-03T09:50:28.441Z,19.67
2022-12-03T09:53:00.328Z,19.20
2022-12-03T09:55:28.963Z,20.40
2022-12-03T09:57:57.816Z,19.57
2022-12-03T10:00:30.636Z,19.43
2022-12-03T10:03:02.907Z,20.67
2022-12-03T10:05:30.376Z,19.20
2022-12-03T10:08:18.149Z,18.70
2022-12-03T10:10:45.361Z,18.27
2022-12-03T10:13:25.275Z,19.30
2022-12-03T10:15:56.184Z,19.03
2022-12-03T10:18:32.729Z,19.23
2022-12-03T10:21:01.775Z,18.93
2022-12-03T10:23:31.184Z,19.73
2022-12-03T10:26:03.669Z,17.63
2022-12-03T10:28:37.245Z,18.03
2022-12-03T10:31:08.755Z,20.80
2022-12-03T10:33:39.235Z,19.50
2022-12-03T10:36:23.349Z,19.73
2022-12-03T10:39:16.471Z,20.60
2022-12-03T10:41:44.736Z,20.73
2022-12-03T10:44:25.528Z,20.87
2022-12-03T10:47:12.408Z,19.30
2022-12-03T10:49:41.544Z,19.53
2022-12-03T10:52:25.885Z,20.63
2022-12-03T10:54:53.528Z,20.73
2022-12-03T10:57:20.810Z,19.53
2022-12-03T10:59:47.759Z,19.73
2022-12-03T11:02:21.916Z,20.27
2022-12-03T11:04:50.379Z,20.73
2022-12-03T11:07:22.755Z,20.77
2022-12-03T11:09:54.699Z,21.23
2022-12-03T11:12:29.241Z,20.83
2022-12-03T11:14:56.775Z,20.90
2022-12-03T11:17:40.289Z,19.60
2022-12-03T11:20:25.672Z,21.73
2022-12-03T11:22:57.923Z,19.90
2022-12-03T11:25:28.010Z,21.30
2022-12-03T11:28:12.945Z,21.03
2022-12-03T11:30:49.200Z,20.73
2022-12-03T11:33:25.272Z,21.83
2022-12-03T11:36:04.180Z,20.97
2022-12-03T11:38:53.929Z,19.50
2022-12-03T11:41:33.504Z,21.40
2022-12-03T11:44:31.900Z,21.27
2022-12-03T11:47:00.517Z,20.30
2022-12-03T11:49:45.790Z,21.57
2022-12-03T11:52:27.170Z,19.80
2022-12-03T11:55:30.152Z,20.60
2022-12-03T11:58:06.005Z,21.50
2022-12-03T12:00:32.991Z,20.93
2022-12-03T12:03:00.013Z,20.80
2022-12-03T12:05:34.467Z,21.10
2022-12-03T12:08:03.430Z,21.43
2022-12-03T12:10:49.172Z,21.50
2022-12-03T12:13:31.012Z,21.03
2022-12-03T12:15:59.302Z,20.80
2022-12-03T12:18:44.930Z,21.93
2022-12-03T12:21:42.011Z,20.93
2022-12-03T12:25:01.251Z,20.77
2022-12-03T12:27:34.225Z,22.07
2022-12-03T12:30:15.499Z,20.77
2022-12-03T12:32:50.498Z,20.67
2022-12-03T12:35:32.543Z,20.20
2022-12-03T12:38:10.851Z,19.93
2022-12-03T12:40:40.764Z,21.43
2022-12-03T12:43:29.536Z,20.43
2022-12-03T12:46:18.754Z,20.87
2022-12-03T12:48:48.696Z,20.57
2022-12-03T12:51:18.894Z,23.63
2022-12-03T12:53:46.466Z,20.70
2022-12-03T12:56:44.989Z,19.70
2022-12-03T12:59:16.217Z,20.63
2022-12-03T13:01:45.847Z,20.87
2022-12-03T13:04:22.674Z,21.67
2022-12-03T13:06:52.906Z,21.90
2022-12-03T13:09:23.947Z,21.30
2022-12-03T13:11:58.126Z,22.10
2022-12-03T13:14:36.679Z,20.87
2022-12-03T13:17:19.624Z,22.43
2022-12-03T13:20:00.604Z,22.20
2022-12-03T13:22:30.718Z,21.13
2022-12-03T13:24:59.317Z,21.27
2022-12-03T13:27:30.026Z,21.13
2022-12-03T13:30:15.657Z,21.57
2022-12-03T13:32:43.531Z,21.17
2022-12-03T13:35:16.129Z,21.40
2022-12-03T13:37:43.233Z,22.33
2022-12-03T13:40:26.064Z,22.53
2022-12-03T13:42:54.296Z,22.60
2022-12-03T13:45:54.419Z,21.63
2022-12-03T13:48:31.865Z,22.40
2022-12-03T13:51:23.165Z,22.40
2022-12-03T13:53:50.200Z,21.57
2022-12-03T13:56:43.273Z,23.10
2022-12-03T13:59:10.269Z,21.43
2022-12-03T14:01:37.334Z,21.33
2022-12-03T14:04:04.706Z,23.23
2022-12-03T14:06:33.613Z,22.20
2022-12-03T14:09:00.755Z,22.97
2022-12-03T14:11:46.397Z,23.43
2022-12-03T14:14:13.502Z,21.20
2022-12-03T14:16:40.549Z,22.73
2022-12-03T14:19:07.756Z,22.43
2022-12-03T14:21:34.760Z,24.63
2022-12-03T14:24:01.702Z,23.50
2022-12-03T14:26:28.690Z,23.97
2022-12-03T14:28:55.614Z,24.40
2022-12-03T14:31:22.665Z,21.33
2022-12-03T14:33:49.668Z,24.73
2022-12-03T14:36:16.594Z,25.03
2022-12-03T14:38:43.523Z,25.10
2022-12-03T14:41:30.396Z,24.57
2022-12-03T14:43:57.367Z,24.90
2022-12-03T14:46:24.342Z,24.27
2022-12-03T14:48:51.288Z,25.80
2022-12-03T14:51:18.212Z,25.30
2022-12-03T14:53:45.183Z,23.97
2022-12-03T14:56:12.137Z,25.07
2022-12-03T14:58:39.114Z,23.83
2022-12-03T15:01:06.265Z,24.90
2022-12-03T15:03:33.298Z,22.57
2022-12-03T15:06:00.727Z,23.97
2022-12-03T15:08:30.404Z,21.63
2022-12-03T15:10:57.422Z,23.83
2022-12-03T15:13:24.373Z,26.50
2022-12-03T15:15:51.403Z,23.80
2022-12-03T15:18:18.678Z,26.03
2022-12-03T15:20:45.673Z,24.77
2022-12-03T15:23:14.549Z,23.77
2022-12-03T15:25:41.852Z,24.60
2022-12-03T15:28:08.999Z,23.83
2022-12-03T15:30:36.169Z,24.60
2022-12-03T15:33:04.154Z,23.30
2022-12-03T15:35:31.455Z,25.40
2022-12-03T15:37:58.637Z,26.00
2022-12-03T15:40:26.145Z,25.50
2022-12-03T15:42:53.223Z,25.40
2022-12-03T15:45:20.345Z,25.00
2022-12-03T15:47:47.310Z,23.40
2022-12-03T15:50:14.740Z,24.67
2022-12-03T15:52:41.764Z,25.07
2022-12-03T15:55:09.456Z,24.83
2022-12-03T15:57:36.422Z,25.70
2022-12-03T16:00:05.019Z,25.30
2022-12-03T16:02:35.630Z,26.60
2022-12-03T16:05:05.347Z,25.83
2022-12-03T16:07:32.420Z,28.33
2022-12-03T16:09:59.468Z,27.10
2022-12-03T16:12:26.382Z,27.27
2022-12-03T16:14:53.445Z,26.80
2022-12-03T16:17:20.624Z,26.73
2022-12-03T16:19:47.630Z,28.30
2022-12-03T16:22:15.052Z,27.90
2022-12-03T16:24:41.990Z,26.73
2022-12-03T16:27:09.021Z,27.93
2022-12-03T16:29:36.055Z,27.57
2022-12-03T16:32:03.407Z,26.83
2022-12-03T16:34:30.409Z,26.83
2022-12-03T16:36:57.339Z,26.90
2022-12-03T16:39:24.603Z,28.10
2022-12-03T16:41:51.703Z,28.07
2022-12-03T16:44:32.548Z,28.37
2022-12-03T16:47:01.449Z,27.67
2022-12-03T16:49:28.768Z,28.90
2022-12-03T16:51:55.700Z,27.53
2022-12-03T16:54:22.653Z,27.63
2022-12-03T16:56:49.619Z,28.43
2022-12-03T16:59:16.593Z,28.00
2022-12-03T17:01:43.694Z,29.47
2022-12-03T17:04:10.777Z,28.70
2022-12-03T17:06:37.880Z,29.77
2022-12-03T17:09:05.033Z,27.97
2022-12-03T17:11:31.994Z,29.93
2022-12-03T17:13:59.052Z,30.30
2022-12-03T17:16:26.041Z,30.10
2022-12-03T17:18:53.005Z,30.00
2022-12-03T17:21:20.015Z,29.83
2022-12-03T17:23:48.964Z,30.30
2022-12-03T17:26:15.946Z,29.33
2022-12-03T17:28:43.063Z,30.77
2022-12-03T17:31:10.360Z,29.93
2022-12-03T17:33:37.522Z,32.53
2022-12-03T17:36:05.173Z,31.03
2022-12-03T17:38:38.818Z,30.03
2022-12-03T17:41:07.514Z,30.33
2022-12-03T17:43:34.500Z,30.33
2022-12-03T17:46:01.534Z,31.07
2022-12-03T17:48:31.108Z,32.13
2022-12-03T17:50:58.225Z,32.60
2022-12-03T17:53:25.400Z,35.23
2022-12-03T17:55:52.344Z,31.70
2022-12-03T17:58:19.809Z,31.83
2022-12-03T18:00:46.882Z,31.43
2022-12-03T18:03:13.846Z,34.10
2022-12-03T18:05:41.702Z,32.40
2022-12-03T18:08:08.741Z,32.93
2022-12-03T18:10:35.878Z,32.77
2022-12-03T18:13:02.922Z,33.13
2022-12-03T18:15:30.885Z,37.07
2022-12-03T18:17:57.976Z,32.87
2022-12-03T18:20:24.983Z,32.73
2022-12-03T18:22:52.080Z,33.23
2022-12-03T18:25:19.445Z,33.47
2022-12-03T18:27:46.957Z,34.40
2022-12-03T18:30:14.141Z,35.73
2022-12-03T18:32:41.103Z,34.10
2022-12-03T18:35:08.413Z,33.43
2022-12-03T18:37:35.628Z,34.57
2022-12-03T18:40:12.486Z,38.03
2022-12-03T18:42:40.205Z,34.30
2022-12-03T18:45:11.291Z,35.67
2022-12-03T18:47:38.259Z,36.30
2022-12-03T18:50:07.248Z,35.80
2022-12-03T18:52:34.367Z,32.47
2022-12-03T18:55:01.734Z,33.57
2022-12-03T18:57:28.680Z,35.60
2022-12-03T18:59:55.949Z,32.57
2022-12-03T19:03:02.045Z,32.73
2022-12-03T19:05:10.485Z,31.50
2022-12-03T19:07:37.738Z,34.20
2022-12-03T19:10:05.795Z,35.53
2022-12-03T19:12:33.758Z,33.90
2022-12-03T19:15:00.928Z,33.83
2022-12-03T19:17:27.980Z,35.20
2022-12-03T19:19:55.618Z,32.67
2022-12-03T19:22:23.299Z,35.07
2022-12-03T19:24:50.724Z,35.03
2022-12-03T19:27:17.967Z,35.27
2022-12-03T19:29:48.273Z,36.00
2022-12-03T19:32:15.271Z,33.03
2022-12-03T19:34:42.660Z,33.03
2022-12-03T19:37:09.597Z,34.90
2022-12-03T19:39:36.623Z,34.43
2022-12-03T19:42:03.831Z,34.77
2022-12-03T19:44:31.029Z,34.30
2022-12-03T19:46:58.127Z,33.67
2022-12-03T19:49:25.316Z,34.63
2022-12-03T19:51:52.392Z,34.50
2022-12-03T19:54:19.609Z,36.03
2022-12-03T19:56:46.798Z,33.47
2022-12-03T19:59:14.376Z,31.97
2022-12-03T20:01:43.233Z,34.87
2022-12-03T20:04:12.134Z,33.53
2022-12-03T20:06:39.982Z,33.80
2022-12-03T20:09:13.838Z,33.97
2022-12-03T20:11:41.964Z,33.17
2022-12-03T20:14:14.935Z,34.27
2022-12-03T20:16:42.394Z,33.53
2022-12-03T20:19:12.770Z,34.13
2022-12-03T20:21:40.968Z,34.03
2022-12-03T20:24:11.405Z,33.33
2022-12-03T20:26:38.563Z,34.47
2022-12-03T20:29:05.549Z,33.33
2022-12-03T20:31:32.952Z,34.70
2022-12-03T20:34:02.523Z,33.33
2022-12-03T20:36:31.694Z,32.10
2022-12-03T20:39:05.800Z,33.17
2022-12-03T20:41:36.024Z,33.67
2022-12-03T20:44:03.776Z,32.73
2022-12-03T20:46:31.643Z,34.17
2022-12-03T20:48:59.633Z,33.37
2022-12-03T20:51:30.147Z,32.40
2022-12-03T20:53:59.169Z,32.97
2022-12-03T20:56:31.685Z,30.93
2022-12-03T20:59:06.442Z,31.80
2022-12-03T21:01:36.077Z,32.57
2022-12-03T21:04:04.929Z,30.03
2022-12-03T21:06:34.892Z,29.90
2022-12-03T21:09:05.131Z,31.10
2022-12-03T21:11:33.957Z,30.27
2022-12-03T21:14:00.943Z,29.07
2022-12-03T21:17:05.951Z,31.10
2022-12-03T21:19:22.386Z,31.63
2022-12-03T21:21:49.506Z,30.50
2022-12-03T21:24:16.557Z,30.13
2022-12-03T21:26:43.453Z,31.87
2022-12-03T21:29:10.476Z,33.97
2022-12-03T21:31:39.768Z,34.20
2022-12-03T21:34:08.451Z,31.67
2022-12-03T21:36:35.711Z,32.73
2022-12-03T21:39:02.657Z,32.80
2022-12-03T21:41:29.633Z,33.93
2022-12-03T21:43:56.539Z,34.63
2022-12-03T21:47:09.407Z,33.20
2022-12-03T21:49:10.455Z,33.57
2022-12-03T21:51:37.814Z,34.83
2022-12-03T21:54:04.926Z,34.13
2022-12-03T21:56:33.020Z,35.60
2022-12-03T21:59:00.002Z,33.43
2022-12-03T22:01:27.347Z,34.77
2022-12-03T22:03:54.382Z,32.80
2022-12-03T22:06:21.945Z,34.90
2022-12-03T22:08:49.341Z,35.93
2022-12-03T22:11:23.358Z,34.57
2022-12-03T22:13:50.826Z,35.03
2022-12-03T22:16:20.898Z,34.90
2022-12-03T22:18:48.267Z,35.30
2022-12-03T22:21:20.588Z,34.33
2022-12-03T22:23:47.846Z,35.73
2022-12-03T22:26:17.873Z,32.87
2022-12-03T22:28:47.391Z,35.60
2022-12-03T22:31:16.077Z,36.40
2022-12-03T22:33:43.741Z,35.23
2022-12-03T22:36:20.115Z,35.27
2022-12-03T22:38:49.674Z,33.43
2022-12-03T22:41:17.770Z,31.53
2022-12-03T22:43:45.957Z,30.03
2022-12-03T22:46:13.606Z,30.30
2022-12-03T22:48:46.336Z,31.33
2022-12-03T22:51:22.937Z,28.83
2022-12-03T22:53:59.587Z,31.03
2022-12-03T22:56:28.523Z,30.80
2022-12-03T22:58:55.691Z,29.87
2022-12-03T23:01:26.675Z,30.33
2022-12-03T23:03:54.432Z,30.27
2022-12-03T23:06:23.073Z,29.47
2022-12-03T23:08:50.548Z,29.00
2022-12-03T23:11:18.323Z,27.90
2022-12-03T23:13:45.462Z,30.73
2022-12-03T23:16:23.587Z,28.63
2022-12-03T23:18:50.962Z,27.93
2022-12-03T23:21:29.016Z,28.47
2022-12-03T23:24:01.435Z,28.20
2022-12-03T23:26:29.076Z,27.17
2022-12-03T23:28:56.716Z,27.57
2022-12-03T23:31:31.676Z,26.33
2022-12-03T23:33:59.822Z,26.73
2022-12-03T23:36:30.061Z,27.70
2022-12-03T23:38:57.082Z,26.00
2022-12-03T23:41:24.782Z,28.70
2022-12-03T23:43:52.113Z,26.20
2022-12-03T23:46:26.174Z,25.93
2022-12-03T23:48:53.593Z,26.97
2022-12-03T23:51:24.326Z,26.60
2022-12-03T23:53:53.198Z,26.37
2022-12-03T23:56:25.513Z,26.10
2022-12-03T23:58:52.559Z,26.87
